createdAt,value
2023-12-24T00:00:31.554Z,-4.499999999999943
2023-12-24T00:01:31.455Z,-4.499999999999943
2023-12-24T00:02:31.904Z,-4.499999999999943
2023-12-24T00:03:31.583Z,-4.611111111111086
2023-12-24T00:04:31.499Z,-4.611111111111086
2023-12-24T00:05:31.550Z,-4.499999999999943
2023-12-24T00:06:31.518Z,-4.499999999999943
2023-12-24T00:07:32.461Z,-4.499999999999943
2023-12-24T00:08:32.694Z,-4.499999999999943
2023-12-24T00:09:32.473Z,-4.499999999999943
2023-12-24T00:10:32.478Z,-4.499999999999943
2023-12-24T00:11:32.616Z,-4.499999999999943
2023-12-24T00:12:32.498Z,-4.499999999999943
2023-12-24T00:13:32.498Z,-4.499999999999943
2023-12-24T00:14:32.714Z,-4.499999999999943
2023-12-24T00:15:32.486Z,-4.499999999999943
2023-12-24T00:16:32.507Z,-4.499999999999943
2023-12-24T00:17:32.567Z,-4.499999999999943
2023-12-24T00:18:32.680Z,-4.388888888888857
2023-12-24T00:19:32.624Z,-4.388888888888857
2023-12-24T00:20:32.592Z,-4.388888888888857
2023-12-24T00:21:32.458Z,-4.388888888888857
2023-12-24T00:22:32.735Z,-4.499999999999943
2023-12-24T00:23:32.676Z,-4.499999999999943
2023-12-24T00:24:32.654Z,-4.499999999999943
2023-12-24T00:25:32.588Z,-4.499999999999943
2023-12-24T00:26:32.654Z,-4.499999999999943
2023-12-24T00:27:32.638Z,-4.499999999999943
2023-12-24T00:28:32.603Z,-4.499999999999943
2023-12-24T00:29:32.735Z,-4.499999999999943
2023-12-24T00:30:32.690Z,-4.499999999999943
2023-12-24T00:31:32.656Z,-4.499999999999943
2023-12-24T00:32:33.011Z,-4.499999999999943
2023-12-24T00:33:32.800Z,-4.499999999999943
2023-12-24T00:34:32.654Z,-4.499999999999943
2023-12-24T00:35:32.738Z,-4.499999999999943
2023-12-24T00:36:32.601Z,-4.499999999999943
2023-12-24T00:37:32.611Z,-4.499999999999943
2023-12-24T00:38:33.686Z,-4.499999999999943
2023-12-24T00:39:32.639Z,-4.499999999999943
2023-12-24T00:40:32.637Z,-4.499999999999943
2023-12-24T00:41:32.721Z,-4.499999999999943
2023-12-24T00:42:32.572Z,-4.499999999999943
2023-12-24T00:43:32.608Z,-4.499999999999943
2023-12-24T00:44:32.765Z,-4.499999999999943
2023-12-24T00:45:32.653Z,-4.499999999999943
2023-12-24T00:46:32.586Z,-4.499999999999943
2023-12-24T00:47:32.668Z,-4.499999999999943
2023-12-24T00:48:32.729Z,-4.611111111111086
2023-12-24T00:49:32.624Z,-4.611111111111086
2023-12-24T00:50:45.201Z,-4.611111111111086
2023-12-24T00:51:49.309Z,-4.611111111111086
2023-12-24T00:52:53.890Z,-4.611111111111086
2023-12-24T00:53:57.286Z,-4.611111111111086
2023-12-24T00:55:01.172Z,-4.611111111111086
2023-12-24T00:56:05.331Z,-4.611111111111086
2023-12-24T00:57:09.201Z,-4.611111111111086
2023-12-24T00:58:13.278Z,-4.611111111111086
2023-12-24T00:59:17.189Z,-4.611111111111086
2023-12-24T01:00:23.849Z,-4.611111111111086
2023-12-24T01:01:25.060Z,-4.611111111111086
2023-12-24T01:02:29.276Z,-4.611111111111086
2023-12-24T01:03:32.475Z,-4.611111111111086
2023-12-24T01:04:32.481Z,-4.611111111111086
2023-12-24T01:05:32.476Z,-4.611111111111086
2023-12-24T01:06:32.595Z,-4.611111111111086
2023-12-24T01:07:32.537Z,-4.611111111111086
2023-12-24T01:08:32.537Z,-4.611111111111086
2023-12-24T01:09:32.477Z,-4.611111111111086
2023-12-24T01:10:32.512Z,-4.611111111111086
2023-12-24T01:11:32.559Z,-4.611111111111086
2023-12-24T01:12:32.532Z,-4.611111111111086
2023-12-24T01:13:32.484Z,-4.611111111111086
2023-12-24T01:14:32.738Z,-4.611111111111086
2023-12-24T01:15:32.490Z,-4.611111111111086
2023-12-24T01:16:32.473Z,-4.611111111111086
2023-12-24T01:17:32.515Z,-4.611111111111086
2023-12-24T01:18:32.535Z,-4.611111111111086
2023-12-24T01:19:32.590Z,-4.611111111111086
2023-12-24T01:20:32.644Z,-4.611111111111086
2023-12-24T01:21:32.459Z,-4.611111111111086
2023-12-24T01:22:32.626Z,-4.611111111111086
2023-12-24T01:23:32.672Z,-4.611111111111086
2023-12-24T01:24:32.476Z,-4.611111111111086
2023-12-24T01:25:32.582Z,-4.611111111111086
2023-12-24T01:26:32.592Z,-4.611111111111086
2023-12-24T01:27:32.517Z,-4.611111111111086
2023-12-24T01:28:32.587Z,-4.611111111111086
2023-12-24T01:29:32.595Z,-4.611111111111086
2023-12-24T01:30:32.720Z,-4.722222222222172
2023-12-24T01:31:32.544Z,-4.722222222222172
2023-12-24T01:32:32.848Z,-4.722222222222172
2023-12-24T01:33:32.613Z,-4.722222222222172
2023-12-24T01:34:32.612Z,-4.722222222222172
2023-12-24T01:35:32.493Z,-4.722222222222172
2023-12-24T01:36:32.481Z,-4.722222222222172
2023-12-24T01:37:32.565Z,-4.722222222222172
2023-12-24T01:38:32.623Z,-4.722222222222172
2023-12-24T01:39:32.564Z,-4.722222222222172
2023-12-24T01:40:32.552Z,-4.611111111111086
2023-12-24T01:41:32.518Z,-4.611111111111086
2023-12-24T01:42:32.573Z,-4.611111111111086
2023-12-24T01:43:32.469Z,-4.611111111111086
2023-12-24T01:44:32.565Z,-4.611111111111086
2023-12-24T01:45:32.589Z,-4.611111111111086
2023-12-24T01:46:32.641Z,-4.611111111111086
2023-12-24T01:47:32.688Z,-4.611111111111086
2023-12-24T01:48:32.619Z,-4.611111111111086
2023-12-24T01:49:32.457Z,-4.611111111111086
2023-12-24T01:50:45.298Z,-4.611111111111086
2023-12-24T01:51:49.094Z,-4.611111111111086
2023-12-24T01:52:53.399Z,-4.611111111111086
2023-12-24T01:53:57.933Z,-4.611111111111086
2023-12-24T01:55:01.106Z,-4.722222222222172
2023-12-24T01:56:05.253Z,-4.722222222222172
2023-12-24T01:57:09.094Z,-4.722222222222172
2023-12-24T01:58:13.145Z,-4.722222222222172
2023-12-24T01:59:17.263Z,-4.722222222222172
2023-12-24T02:00:21.142Z,-4.722222222222172
2023-12-24T02:01:25.104Z,-4.722222222222172
2023-12-24T02:02:29.214Z,-4.7777777777777715
2023-12-24T02:03:32.490Z,-4.7777777777777715
2023-12-24T02:04:32.557Z,-4.7777777777777715
2023-12-24T02:05:32.567Z,-4.7777777777777715
2023-12-24T02:06:32.499Z,-4.7777777777777715
2023-12-24T02:07:32.564Z,-4.7777777777777715
2023-12-24T02:08:32.675Z,-4.7777777777777715
2023-12-24T02:09:32.583Z,-4.7777777777777715
2023-12-24T02:10:32.529Z,-4.7777777777777715
2023-12-24T02:11:32.590Z,-4.888888888888857
2023-12-24T02:12:32.643Z,-4.888888888888857
2023-12-24T02:13:32.457Z,-4.888888888888857
2023-12-24T02:14:32.721Z,-4.888888888888857
2023-12-24T02:15:32.657Z,-4.888888888888857
2023-12-24T02:16:32.632Z,-4.888888888888857
2023-12-24T02:17:32.527Z,-4.888888888888857
2023-12-24T02:18:32.562Z,-4.888888888888857
2023-12-24T02:19:32.551Z,-4.999999999999943
2023-12-24T02:20:32.483Z,-4.999999999999943
2023-12-24T02:21:32.530Z,-4.999999999999943
2023-12-24T02:22:32.973Z,-4.999999999999943
2023-12-24T02:23:32.506Z,-4.999999999999943
2023-12-24T02:24:32.451Z,-4.999999999999943
2023-12-24T02:25:32.465Z,-4.999999999999943
2023-12-24T02:26:32.699Z,-4.999999999999943
2023-12-24T02:27:32.512Z,-4.999999999999943
2023-12-24T02:28:32.459Z,-4.999999999999943
2023-12-24T02:29:32.538Z,-4.999999999999943
2023-12-24T02:30:32.606Z,-4.999999999999943
2023-12-24T02:31:32.543Z,-4.999999999999943
2023-12-24T02:32:33.024Z,-4.999999999999943
2023-12-24T02:33:32.559Z,-4.999999999999943
2023-12-24T02:34:32.562Z,-5.111111111111086
2023-12-24T02:35:32.628Z,-5.111111111111086
2023-12-24T02:36:32.558Z,-4.999999999999943
2023-12-24T02:37:32.485Z,-4.999999999999943
2023-12-24T02:38:32.541Z,-4.999999999999943
2023-12-24T02:39:32.459Z,-5.111111111111086
2023-12-24T02:40:32.510Z,-5.111111111111086
2023-12-24T02:41:32.546Z,-5.111111111111086
2023-12-24T02:42:33.051Z,-5.111111111111086
2023-12-24T02:43:32.571Z,-5.111111111111086
2023-12-24T02:44:32.647Z,-5.111111111111086
2023-12-24T02:45:32.540Z,-5.111111111111086
2023-12-24T02:46:32.483Z,-5.111111111111086
2023-12-24T02:47:32.545Z,-5.111111111111086
2023-12-24T02:48:32.517Z,-5.111111111111086
2023-12-24T02:49:32.475Z,-5.111111111111086
2023-12-24T02:50:45.369Z,-5.111111111111086
2023-12-24T02:51:49.133Z,-5.111111111111086
2023-12-24T02:52:53.602Z,-5.111111111111086
2023-12-24T02:53:57.175Z,-5.111111111111086
2023-12-24T02:55:01.378Z,-5.111111111111086
2023-12-24T02:56:05.274Z,-5.222222222222172
2023-12-24T02:57:09.250Z,-5.222222222222172
2023-12-24T02:58:13.233Z,-5.222222222222172
2023-12-24T02:59:17.161Z,-5.222222222222172
2023-12-24T03:00:21.183Z,-5.222222222222172
2023-12-24T03:01:25.240Z,-5.111111111111086
2023-12-24T03:02:29.166Z,-5.111111111111086
2023-12-24T03:03:32.581Z,-5.111111111111086
2023-12-24T03:04:32.541Z,-5.111111111111086
2023-12-24T03:05:32.498Z,-5.222222222222172
2023-12-24T03:06:32.553Z,-5.222222222222172
2023-12-24T03:07:32.516Z,-5.222222222222172
2023-12-24T03:08:32.665Z,-5.222222222222172
2023-12-24T03:09:32.653Z,-5.222222222222172
2023-12-24T03:10:32.589Z,-5.222222222222172
2023-12-24T03:11:32.672Z,-5.222222222222172
2023-12-24T03:12:32.744Z,-5.111111111111086
2023-12-24T03:13:32.467Z,-5.111111111111086
2023-12-24T03:14:32.494Z,-5.111111111111086
2023-12-24T03:15:32.652Z,-5.111111111111086
2023-12-24T03:16:32.503Z,-5.111111111111086
2023-12-24T03:17:32.599Z,-5.222222222222172
2023-12-24T03:18:32.581Z,-5.222222222222172
2023-12-24T03:19:32.583Z,-5.111111111111086
2023-12-24T03:20:32.537Z,-5.111111111111086
2023-12-24T03:21:32.558Z,-5.222222222222172
2023-12-24T03:22:32.554Z,-5.222222222222172
2023-12-24T03:23:32.695Z,-5.222222222222172
2023-12-24T03:24:32.491Z,-5.222222222222172
2023-12-24T03:25:32.458Z,-5.222222222222172
2023-12-24T03:26:32.607Z,-5.222222222222172
2023-12-24T03:27:32.562Z,-5.222222222222172
2023-12-24T03:28:32.599Z,-5.277777777777715
2023-12-24T03:29:32.506Z,-5.277777777777715
2023-12-24T03:30:32.614Z,-5.277777777777715
2023-12-24T03:31:32.452Z,-5.277777777777715
2023-12-24T03:32:32.819Z,-5.277777777777715
2023-12-24T03:33:32.591Z,-5.277777777777715
2023-12-24T03:34:32.639Z,-5.277777777777715
2023-12-24T03:35:32.570Z,-5.277777777777715
2023-12-24T03:36:32.580Z,-5.277777777777715
2023-12-24T03:37:32.526Z,-5.277777777777715
2023-12-24T03:38:32.583Z,-5.277777777777715
2023-12-24T03:39:32.636Z,-5.277777777777715
2023-12-24T03:40:32.557Z,-5.277777777777715
2023-12-24T03:41:32.523Z,-5.277777777777715
2023-12-24T03:42:32.533Z,-5.388888888888857
2023-12-24T03:43:32.547Z,-5.388888888888857
2023-12-24T03:44:32.554Z,-5.388888888888857
2023-12-24T03:45:32.458Z,-5.388888888888857
2023-12-24T03:46:32.458Z,-5.388888888888857
2023-12-24T03:47:32.548Z,-5.277777777777715
2023-12-24T03:48:32.606Z,-5.277777777777715
2023-12-24T03:49:32.465Z,-5.388888888888857
2023-12-24T03:50:32.724Z,-5.388888888888857
2023-12-24T03:51:32.441Z,-5.388888888888857
2023-12-24T03:52:32.770Z,-5.388888888888857
2023-12-24T03:53:32.476Z,-5.499999999999943
2023-12-24T03:54:32.434Z,-5.388888888888857
2023-12-24T03:55:32.509Z,-5.388888888888857
2023-12-24T03:56:32.536Z,-5.388888888888857
2023-12-24T03:57:32.446Z,-5.388888888888857
2023-12-24T03:58:32.434Z,-5.499999999999943
2023-12-24T03:59:32.529Z,-5.499999999999943
2023-12-24T04:00:32.458Z,-5.499999999999943
2023-12-24T04:01:32.561Z,-5.499999999999943
2023-12-24T04:02:32.756Z,-5.499999999999943
2023-12-24T04:03:32.601Z,-5.499999999999943
2023-12-24T04:04:32.460Z,-5.499999999999943
2023-12-24T04:05:32.484Z,-5.499999999999943
2023-12-24T04:06:32.532Z,-5.499999999999943
2023-12-24T04:07:32.488Z,-5.499999999999943
2023-12-24T04:08:32.485Z,-5.499999999999943
2023-12-24T04:09:32.426Z,-5.611111111111086
2023-12-24T04:10:32.954Z,-5.611111111111086
2023-12-24T04:11:32.587Z,-5.611111111111086
2023-12-24T04:12:32.503Z,-5.611111111111086
2023-12-24T04:13:32.439Z,-5.722222222222172
2023-12-24T04:14:32.496Z,-5.722222222222172
2023-12-24T04:15:32.501Z,-5.722222222222172
2023-12-24T04:16:32.499Z,-5.777777777777715
2023-12-24T04:17:32.577Z,-5.777777777777715
2023-12-24T04:18:32.525Z,-5.888888888888857
2023-12-24T04:19:32.500Z,-5.888888888888857
2023-12-24T04:20:32.488Z,-5.888888888888857
2023-12-24T04:21:32.464Z,-5.888888888888857
2023-12-24T04:22:32.470Z,-5.888888888888857
2023-12-24T04:23:32.543Z,-5.888888888888857
2023-12-24T04:24:32.453Z,-5.888888888888857
2023-12-24T04:25:32.463Z,-5.888888888888857
2023-12-24T04:26:32.535Z,-5.888888888888857
2023-12-24T04:27:32.505Z,-5.999999999999943
2023-12-24T04:28:32.449Z,-5.999999999999943
2023-12-24T04:29:32.498Z,-5.999999999999943
2023-12-24T04:30:32.449Z,-5.999999999999943
2023-12-24T04:31:32.476Z,-5.999999999999943
2023-12-24T04:32:32.694Z,-5.999999999999943
2023-12-24T04:33:32.580Z,-5.999999999999943
2023-12-24T04:34:32.530Z,-5.999999999999943
2023-12-24T04:35:32.501Z,-5.999999999999943
2023-12-24T04:36:32.435Z,-6.111111111111086
2023-12-24T04:37:32.447Z,-6.111111111111086
2023-12-24T04:38:32.535Z,-6.222222222222172
2023-12-24T04:39:32.497Z,-6.222222222222172
2023-12-24T04:40:32.507Z,-6.222222222222172
2023-12-24T04:41:34.804Z,-6.222222222222172
2023-12-24T04:42:32.452Z,-6.222222222222172
2023-12-24T04:43:32.473Z,-6.222222222222172
2023-12-24T04:44:32.477Z,-6.222222222222172
2023-12-24T04:45:32.451Z,-6.222222222222172
2023-12-24T04:46:32.504Z,-6.277777777777715
2023-12-24T04:47:32.658Z,-6.277777777777715
2023-12-24T04:48:36.187Z,-6.277777777777715
2023-12-24T04:49:32.453Z,-6.277777777777715
2023-12-24T04:50:45.464Z,-6.277777777777715
2023-12-24T04:51:49.217Z,-6.277777777777715
2023-12-24T04:52:53.480Z,-6.388888888888857
2023-12-24T04:53:57.200Z,-6.388888888888857
2023-12-24T04:55:01.197Z,-6.388888888888857
2023-12-24T04:56:05.168Z,-6.388888888888857
2023-12-24T04:57:09.214Z,-6.388888888888857
2023-12-24T04:58:13.174Z,-6.388888888888857
2023-12-24T04:59:17.221Z,-6.388888888888857
2023-12-24T05:00:21.169Z,-6.499999999999943
2023-12-24T05:01:25.198Z,-6.499999999999943
2023-12-24T05:02:29.220Z,-6.499999999999943
2023-12-24T05:03:32.484Z,-6.499999999999943
2023-12-24T05:04:32.453Z,-6.499999999999943
2023-12-24T05:05:32.533Z,-6.499999999999943
2023-12-24T05:06:32.465Z,-6.499999999999943
2023-12-24T05:07:32.436Z,-6.499999999999943
2023-12-24T05:08:32.467Z,-6.499999999999943
2023-12-24T05:09:32.456Z,-6.499999999999943
2023-12-24T05:10:32.490Z,-6.499999999999943
2023-12-24T05:11:32.446Z,-6.611111111111029
2023-12-24T05:12:32.908Z,-6.611111111111029
2023-12-24T05:13:32.508Z,-6.611111111111029
2023-12-24T05:14:32.509Z,-6.611111111111029
2023-12-24T05:15:32.433Z,-6.611111111111029
2023-12-24T05:16:32.467Z,-6.611111111111029
2023-12-24T05:17:32.574Z,-6.611111111111029
2023-12-24T05:18:32.625Z,-6.611111111111029
2023-12-24T05:19:32.460Z,-6.611111111111029
2023-12-24T05:20:32.469Z,-6.611111111111029
2023-12-24T05:21:32.448Z,-6.611111111111029
2023-12-24T05:22:32.644Z,-6.611111111111029
2023-12-24T05:23:32.494Z,-6.611111111111029
2023-12-24T05:24:32.430Z,-6.611111111111029
2023-12-24T05:25:32.442Z,-6.722222222222172
2023-12-24T05:26:32.505Z,-6.722222222222172
2023-12-24T05:27:32.460Z,-6.722222222222172
2023-12-24T05:28:32.459Z,-6.722222222222172
2023-12-24T05:29:32.505Z,-6.722222222222172
2023-12-24T05:30:32.481Z,-6.722222222222172
2023-12-24T05:31:32.457Z,-6.722222222222172
2023-12-24T05:32:32.819Z,-6.722222222222172
2023-12-24T05:33:32.831Z,-6.722222222222172
2023-12-24T05:34:32.495Z,-6.722222222222172
2023-12-24T05:35:32.530Z,-6.722222222222172
2023-12-24T05:36:32.426Z,-6.722222222222172
2023-12-24T05:37:32.514Z,-6.722222222222172
2023-12-24T05:38:32.510Z,-6.722222222222172
2023-12-24T05:39:32.505Z,-6.722222222222172
2023-12-24T05:40:32.428Z,-6.722222222222172
2023-12-24T05:41:33.772Z,-6.722222222222172
2023-12-24T05:42:32.470Z,-6.722222222222172
2023-12-24T05:43:32.467Z,-6.722222222222172
2023-12-24T05:44:32.456Z,-6.777777777777715
2023-12-24T05:45:32.450Z,-6.777777777777715
2023-12-24T05:46:32.517Z,-6.777777777777715
2023-12-24T05:47:32.549Z,-6.777777777777715
2023-12-24T05:48:32.503Z,-6.777777777777715
2023-12-24T05:49:32.461Z,-6.777777777777715
2023-12-24T05:50:32.813Z,-6.777777777777715
2023-12-24T05:51:33.231Z,-6.777777777777715
2023-12-24T05:52:38.091Z,-6.777777777777715
2023-12-24T05:53:41.306Z,-6.777777777777715
2023-12-24T05:54:45.212Z,-6.777777777777715
2023-12-24T05:55:49.199Z,-6.777777777777715
2023-12-24T05:56:53.274Z,-6.777777777777715
2023-12-24T05:57:57.314Z,-6.777777777777715
2023-12-24T05:59:01.252Z,-6.777777777777715
2023-12-24T06:00:05.626Z,-6.777777777777715
2023-12-24T06:01:09.321Z,-6.777777777777715
2023-12-24T06:02:13.318Z,-6.777777777777715
2023-12-24T06:03:17.267Z,-6.777777777777715
2023-12-24T06:04:21.208Z,-6.888888888888857
2023-12-24T06:05:25.344Z,-6.888888888888857
2023-12-24T06:06:29.242Z,-6.888888888888857
2023-12-24T06:07:32.508Z,-6.888888888888857
2023-12-24T06:08:32.529Z,-6.888888888888857
2023-12-24T06:09:32.526Z,-6.888888888888857
2023-12-24T06:10:32.453Z,-6.888888888888857
2023-12-24T06:11:32.497Z,-6.888888888888857
2023-12-24T06:12:32.465Z,-6.888888888888857
2023-12-24T06:13:32.459Z,-6.888888888888857
2023-12-24T06:14:32.474Z,-6.888888888888857
2023-12-24T06:15:32.424Z,-6.999999999999943
2023-12-24T06:16:32.470Z,-6.999999999999943
2023-12-24T06:17:32.731Z,-6.999999999999943
2023-12-24T06:18:32.823Z,-6.999999999999943
2023-12-24T06:19:32.509Z,-6.999999999999943
2023-12-24T06:20:32.459Z,-6.999999999999943
2023-12-24T06:21:32.544Z,-6.999999999999943
2023-12-24T06:22:32.958Z,-6.999999999999943
2023-12-24T06:23:32.450Z,-6.999999999999943
2023-12-24T06:24:32.429Z,-6.999999999999943
2023-12-24T06:25:32.501Z,-6.999999999999943
2023-12-24T06:26:32.447Z,-6.999999999999943
2023-12-24T06:27:32.438Z,-7.111111111111086
2023-12-24T06:28:32.502Z,-7.111111111111086
2023-12-24T06:29:32.476Z,-7.111111111111086
2023-12-24T06:30:32.514Z,-7.111111111111086
2023-12-24T06:31:32.424Z,-7.111111111111086
2023-12-24T06:32:32.665Z,-7.111111111111086
2023-12-24T06:33:32.541Z,-7.111111111111086
2023-12-24T06:34:32.430Z,-7.111111111111086
2023-12-24T06:35:32.498Z,-7.222222222222172
2023-12-24T06:36:32.445Z,-7.222222222222172
2023-12-24T06:37:32.480Z,-7.222222222222172
2023-12-24T06:38:32.451Z,-7.222222222222172
2023-12-24T06:39:32.457Z,-7.222222222222172
2023-12-24T06:40:32.521Z,-7.222222222222172
2023-12-24T06:41:32.467Z,-7.222222222222172
2023-12-24T06:42:32.828Z,-7.222222222222172
2023-12-24T06:43:32.430Z,-7.222222222222172
2023-12-24T06:44:32.480Z,-7.222222222222172
2023-12-24T06:45:32.485Z,-7.222222222222172
2023-12-24T06:46:32.445Z,-7.222222222222172
2023-12-24T06:47:32.492Z,-7.2777777777777715
2023-12-24T06:48:32.590Z,-7.222222222222172
2023-12-24T06:49:32.480Z,-7.222222222222172
2023-12-24T06:50:45.342Z,-7.2777777777777715
2023-12-24T06:51:49.279Z,-7.2777777777777715
2023-12-24T06:52:53.466Z,-7.2777777777777715
2023-12-24T06:53:57.269Z,-7.2777777777777715
2023-12-24T06:55:01.307Z,-7.2777777777777715
2023-12-24T06:56:05.301Z,-7.2777777777777715
2023-12-24T06:57:09.344Z,-7.2777777777777715
2023-12-24T06:58:13.264Z,-7.2777777777777715
2023-12-24T06:59:17.327Z,-7.2777777777777715
2023-12-24T07:00:21.305Z,-7.2777777777777715
2023-12-24T07:01:25.292Z,-7.2777777777777715
2023-12-24T07:02:29.272Z,-7.2777777777777715
2023-12-24T07:03:32.466Z,-7.2777777777777715
2023-12-24T07:04:32.465Z,-7.2777777777777715
2023-12-24T07:05:32.493Z,-7.388888888888857
2023-12-24T07:06:32.486Z,-7.388888888888857
2023-12-24T07:07:32.456Z,-7.388888888888857
2023-12-24T07:08:32.469Z,-7.388888888888857
2023-12-24T07:09:32.429Z,-7.388888888888857
2023-12-24T07:10:32.428Z,-7.388888888888857
2023-12-24T07:11:32.544Z,-7.388888888888857
2023-12-24T07:12:32.488Z,-7.388888888888857
2023-12-24T07:13:32.425Z,-7.388888888888857
2023-12-24T07:14:32.495Z,-7.388888888888857
2023-12-24T07:15:32.468Z,-7.388888888888857
2023-12-24T07:16:32.440Z,-7.388888888888857
2023-12-24T07:17:32.503Z,-7.388888888888857
2023-12-24T07:18:32.497Z,-7.388888888888857
2023-12-24T07:19:32.484Z,-7.388888888888857
2023-12-24T07:20:32.448Z,-7.499999999999943
2023-12-24T07:21:32.416Z,-7.499999999999943
2023-12-24T07:22:32.465Z,-7.499999999999943
2023-12-24T07:23:32.469Z,-7.499999999999943
2023-12-24T07:24:32.476Z,-7.499999999999943
2023-12-24T07:25:32.471Z,-7.499999999999943
2023-12-24T07:26:32.504Z,-7.499999999999943
2023-12-24T07:27:32.479Z,-7.499999999999943
2023-12-24T07:28:32.510Z,-7.499999999999943
2023-12-24T07:29:32.455Z,-7.499999999999943
2023-12-24T07:30:32.457Z,-7.499999999999943
2023-12-24T07:31:32.519Z,-7.499999999999943
2023-12-24T07:32:32.603Z,-7.499999999999943
2023-12-24T07:33:32.623Z,-7.499999999999943
2023-12-24T07:34:32.557Z,-7.499999999999943
2023-12-24T07:35:32.520Z,-7.611111111111086
2023-12-24T07:36:32.427Z,-7.611111111111086
2023-12-24T07:37:32.419Z,-7.611111111111086
2023-12-24T07:38:32.501Z,-7.611111111111086
2023-12-24T07:39:32.435Z,-7.611111111111086
2023-12-24T07:40:32.464Z,-7.611111111111086
2023-12-24T07:41:32.545Z,-7.499999999999943
2023-12-24T07:42:32.715Z,-7.499999999999943
2023-12-24T07:43:32.485Z,-7.499999999999943
2023-12-24T07:44:32.444Z,-7.499999999999943
2023-12-24T07:45:32.468Z,-7.499999999999943
2023-12-24T07:46:32.421Z,-7.499999999999943
2023-12-24T07:47:32.635Z,-7.499999999999943
2023-12-24T07:48:32.428Z,-7.499999999999943
2023-12-24T07:49:32.438Z,-7.499999999999943
2023-12-24T07:50:35.741Z,-7.611111111111086
2023-12-24T07:51:49.335Z,-7.611111111111086
2023-12-24T07:52:53.546Z,-7.611111111111086
2023-12-24T07:53:57.323Z,-7.611111111111086
2023-12-24T07:55:01.285Z,-7.499999999999943
2023-12-24T07:56:05.293Z,-7.611111111111086
2023-12-24T07:57:09.273Z,-7.611111111111086
2023-12-24T07:58:13.336Z,-7.611111111111086
2023-12-24T07:59:17.470Z,-7.611111111111086
2023-12-24T08:00:21.318Z,-7.611111111111086
2023-12-24T08:01:25.310Z,-7.611111111111086
2023-12-24T08:02:29.369Z,-7.611111111111086
2023-12-24T08:03:32.464Z,-7.611111111111086
2023-12-24T08:04:32.442Z,-7.611111111111086
2023-12-24T08:05:32.637Z,-7.611111111111086
2023-12-24T08:06:32.667Z,-7.611111111111086
2023-12-24T08:07:32.582Z,-7.611111111111086
2023-12-24T08:08:32.455Z,-7.499999999999943
2023-12-24T08:09:32.429Z,-7.499999999999943
2023-12-24T08:10:32.496Z,-7.499999999999943
2023-12-24T08:11:32.466Z,-7.499999999999943
2023-12-24T08:12:32.472Z,-7.611111111111086
2023-12-24T08:13:32.407Z,-7.611111111111086
2023-12-24T08:14:32.494Z,-7.611111111111086
2023-12-24T08:15:32.424Z,-7.611111111111086
2023-12-24T08:16:32.408Z,-7.611111111111086
2023-12-24T08:17:32.615Z,-7.611111111111086
2023-12-24T08:18:32.646Z,-7.611111111111086
2023-12-24T08:19:32.493Z,-7.611111111111086
2023-12-24T08:20:32.459Z,-7.499999999999943
2023-12-24T08:21:32.493Z,-7.499999999999943
2023-12-24T08:22:32.476Z,-7.499999999999943
2023-12-24T08:23:32.432Z,-7.499999999999943
2023-12-24T08:24:32.464Z,-7.499999999999943
2023-12-24T08:25:32.474Z,-7.499999999999943
2023-12-24T08:26:32.554Z,-7.499999999999943
2023-12-24T08:27:32.416Z,-7.499999999999943
2023-12-24T08:28:32.434Z,-7.499999999999943
2023-12-24T08:29:32.567Z,-7.499999999999943
2023-12-24T08:30:32.565Z,-7.499999999999943
2023-12-24T08:31:32.444Z,-7.499999999999943
2023-12-24T08:32:32.870Z,-7.499999999999943
2023-12-24T08:33:32.497Z,-7.499999999999943
2023-12-24T08:34:32.557Z,-7.499999999999943
2023-12-24T08:35:32.442Z,-7.611111111111086
2023-12-24T08:36:32.461Z,-7.611111111111086
2023-12-24T08:37:32.420Z,-7.499999999999943
2023-12-24T08:38:32.479Z,-7.499999999999943
2023-12-24T08:39:32.424Z,-7.499999999999943
2023-12-24T08:40:32.425Z,-7.499999999999943
2023-12-24T08:41:32.460Z,-7.499999999999943
2023-12-24T08:42:32.697Z,-7.499999999999943
2023-12-24T08:43:32.541Z,-7.499999999999943
2023-12-24T08:44:32.431Z,-7.499999999999943
2023-12-24T08:45:32.449Z,-7.499999999999943
2023-12-24T08:46:32.475Z,-7.499999999999943
2023-12-24T08:47:32.647Z,-7.499999999999943
2023-12-24T08:48:32.660Z,-7.388888888888857
2023-12-24T08:49:32.599Z,-7.388888888888857
2023-12-24T08:50:35.676Z,-7.388888888888857
2023-12-24T08:51:49.331Z,-7.388888888888857
2023-12-24T08:52:53.668Z,-7.388888888888857
2023-12-24T08:53:57.391Z,-7.388888888888857
2023-12-24T08:55:01.343Z,-7.388888888888857
2023-12-24T08:56:05.404Z,-7.499999999999943
2023-12-24T08:57:09.316Z,-7.499999999999943
2023-12-24T08:58:13.417Z,-7.499999999999943
2023-12-24T08:59:17.381Z,-7.499999999999943
2023-12-24T09:00:21.356Z,-7.499999999999943
2023-12-24T09:01:25.313Z,-7.499999999999943
2023-12-24T09:02:29.454Z,-7.499999999999943
2023-12-24T09:03:32.443Z,-7.499999999999943
2023-12-24T09:04:32.458Z,-7.499999999999943
2023-12-24T09:05:32.598Z,-7.499999999999943
2023-12-24T09:06:32.566Z,-7.499999999999943
2023-12-24T09:07:32.435Z,-7.499999999999943
2023-12-24T09:08:32.510Z,-7.499999999999943
2023-12-24T09:09:32.416Z,-7.499999999999943
2023-12-24T09:10:32.447Z,-7.499999999999943
2023-12-24T09:11:32.600Z,-7.388888888888857